Bridgeboro, Georgia
Current Conditions -  °F | °C
As of 1:53 AM on Thursday 23 Oct 2014 (Local Time) from KABY Reporting Station
Clear Clear  
Wind Chill: 49°   Ceiling: Unl
Heat Index: 49°   Visibility: 10mi
Dew Point: 46°   Wind: 0mph
Humidity: 90%   Direction: NA
Pressure: 30.09"   Gusts: NA
Location:  31.464°N, 83.985°W
Report Text: KABY 230553Z 00000KT 10SM CLR 09/08 A3009 RMK AO2 SLP190 T00940078 10150 20094 58002 $
Loading
Personal Weather Stations






























Interactive Weather Map
Tropical Storm Tracking
New forecast layout! Learn more

10-Day Weather Forecast

Advertisements
Track Severe Weather on mobile